sensor_id;sensor_type;location;lat;lon;timestamp;temperature;humidity
51839;DHT22;37886;53.174;6.368;2023-04-25T00:02:21;6.70;99.90
51839;DHT22;37886;53.174;6.368;2023-04-25T00:04:47;6.70;99.90
51839;DHT22;37886;53.174;6.368;2023-04-25T00:07:15;6.70;99.90
51839;DHT22;37886;53.174;6.368;2023-04-25T00:09:41;6.80;99.90
51839;DHT22;37886;53.174;6.368;2023-04-25T00:12:07;6.70;99.90
51839;DHT22;37886;53.174;6.368;2023-04-25T00:14:32;6.80;99.90
51839;DHT22;37886;53.174;6.368;2023-04-25T00:17:01;6.80;99.90
51839;DHT22;37886;53.174;6.368;2023-04-25T00:19:28;6.80;99.90
51839;DHT22;37886;53.174;6.368;2023-04-25T00:21:55;6.80;99.90
51839;DHT22;37886;53.174;6.368;2023-04-25T00:24:20;6.80;99.90
51839;DHT22;37886;53.174;6.368;2023-04-25T00:26:46;6.70;99.90
51839;DHT22;37886;53.174;6.368;2023-04-25T00:29:12;6.60;99.90
51839;DHT22;37886;53.174;6.368;2023-04-25T00:31:38;6.50;99.90
51839;DHT22;37886;53.174;6.368;2023-04-25T00:34:04;6.50;99.90
51839;DHT22;37886;53.174;6.368;2023-04-25T00:36:30;6.40;99.90
51839;DHT22;37886;53.174;6.368;2023-04-25T00:38:56;6.50;99.90
51839;DHT22;37886;53.174;6.368;2023-04-25T00:41:21;6.40;99.90
51839;DHT22;37886;53.174;6.368;2023-04-25T00:43:48;6.40;99.90
51839;DHT22;37886;53.174;6.368;2023-04-25T00:46:14;6.30;99.90
51839;DHT22;37886;53.174;6.368;2023-04-25T00:48:39;6.20;99.90
51839;DHT22;37886;53.174;6.368;2023-04-25T00:51:05;6.20;99.90
51839;DHT22;37886;53.174;6.368;2023-04-25T00:53:32;6.10;99.90
51839;DHT22;37886;53.174;6.368;2023-04-25T00:55:58;6.10;99.90
51839;DHT22;37886;53.174;6.368;2023-04-25T00:58:24;6.10;99.90
51839;DHT22;37886;53.174;6.368;2023-04-25T01:00:51;6.10;99.90
51839;DHT22;37886;53.174;6.368;2023-04-25T01:03:20;6.10;99.90
51839;DHT22;37886;53.174;6.368;2023-04-25T01:05:47;6.10;99.90
51839;DHT22;37886;53.174;6.368;2023-04-25T01:08:14;6.10;99.90
51839;DHT22;37886;53.174;6.368;2023-04-25T01:10:39;6.10;99.90
51839;DHT22;37886;53.174;6.368;2023-04-25T01:13:05;6.10;99.90
51839;DHT22;37886;53.174;6.368;2023-04-25T01:15:31;6.10;99.90
51839;DHT22;37886;53.174;6.368;2023-04-25T01:17:57;6.00;99.90
51839;DHT22;37886;53.174;6.368;2023-04-25T01:20:24;6.00;99.90
51839;DHT22;37886;53.174;6.368;2023-04-25T01:22:54;6.00;99.90
51839;DHT22;37886;53.174;6.368;2023-04-25T01:25:21;6.00;99.90
51839;DHT22;37886;53.174;6.368;2023-04-25T01:27:47;6.00;99.90
51839;DHT22;37886;53.174;6.368;2023-04-25T01:30:13;6.00;99.90
51839;DHT22;37886;53.174;6.368;2023-04-25T01:32:41;6.00;99.90
51839;DHT22;37886;53.174;6.368;2023-04-25T01:35:09;6.00;99.90
51839;DHT22;37886;53.174;6.368;2023-04-25T01:37:39;6.00;99.90
51839;DHT22;37886;53.174;6.368;2023-04-25T01:40:06;6.00;99.90
51839;DHT22;37886;53.174;6.368;2023-04-25T01:42:33;6.10;99.90
51839;DHT22;37886;53.174;6.368;2023-04-25T01:44:59;6.10;99.90
51839;DHT22;37886;53.174;6.368;2023-04-25T01:47:25;6.00;99.90
51839;DHT22;37886;53.174;6.368;2023-04-25T01:49:52;6.00;99.90
51839;DHT22;37886;53.174;6.368;2023-04-25T01:52:18;6.00;99.90
51839;DHT22;37886;53.174;6.368;2023-04-25T01:54:43;6.00;99.90
51839;DHT22;37886;53.174;6.368;2023-04-25T01:57:13;6.00;99.90
51839;DHT22;37886;53.174;6.368;2023-04-25T01:59:41;6.00;99.90
51839;DHT22;37886;53.174;6.368;2023-04-25T02:02:07;6.00;99.90
51839;DHT22;37886;53.174;6.368;2023-04-25T02:04:33;5.90;99.90
51839;DHT22;37886;53.174;6.368;2023-04-25T02:06:58;5.90;99.90
51839;DHT22;37886;53.174;6.368;2023-04-25T02:09:24;6.00;99.90
51839;DHT22;37886;53.174;6.368;2023-04-25T02:11:50;6.10;99.90
51839;DHT22;37886;53.174;6.368;2023-04-25T02:14:16;6.00;99.90
51839;DHT22;37886;53.174;6.368;2023-04-25T02:16:42;6.10;99.90
51839;DHT22;37886;53.174;6.368;2023-04-25T02:19:09;6.10;99.90
51839;DHT22;37886;53.174;6.368;2023-04-25T02:21:36;6.20;99.90
51839;DHT22;37886;53.174;6.368;2023-04-25T02:24:02;6.10;99.90
51839;DHT22;37886;53.174;6.368;2023-04-25T02:26:28;6.10;99.90
51839;DHT22;37886;53.174;6.368;2023-04-25T02:28:54;6.10;99.90
51839;DHT22;37886;53.174;6.368;2023-04-25T02:31:20;6.10;99.90
51839;DHT22;37886;53.174;6.368;2023-04-25T02:33:47;6.20;99.90
51839;DHT22;37886;53.174;6.368;2023-04-25T02:36:12;6.10;99.90
51839;DHT22;37886;53.174;6.368;2023-04-25T02:38:38;6.10;99.90
51839;DHT22;37886;53.174;6.368;2023-04-25T02:41:04;6.10;99.90
51839;DHT22;37886;53.174;6.368;2023-04-25T02:43:30;6.10;99.90
51839;DHT22;37886;53.174;6.368;2023-04-25T02:45:55;6.00;99.90
51839;DHT22;37886;53.174;6.368;2023-04-25T02:48:21;6.10;99.90
51839;DHT22;37886;53.174;6.368;2023-04-25T02:50:47;6.10;99.90
51839;DHT22;37886;53.174;6.368;2023-04-25T02:53:12;6.00;99.90
51839;DHT22;37886;53.174;6.368;2023-04-25T02:55:38;6.00;99.90
51839;DHT22;37886;53.174;6.368;2023-04-25T02:58:04;5.90;99.90
51839;DHT22;37886;53.174;6.368;2023-04-25T03:00:30;5.90;99.90
51839;DHT22;37886;53.174;6.368;2023-04-25T03:02:56;5.90;99.90
51839;DHT22;37886;53.174;6.368;2023-04-25T03:05:22;5.80;99.90
51839;DHT22;37886;53.174;6.368;2023-04-25T03:07:48;5.80;99.90
51839;DHT22;37886;53.174;6.368;2023-04-25T03:10:13;5.80;99.90
51839;DHT22;37886;53.174;6.368;2023-04-25T03:12:39;5.90;99.90
51839;DHT22;37886;53.174;6.368;2023-04-25T03:15:05;5.80;99.90
51839;DHT22;37886;53.174;6.368;2023-04-25T03:17:31;5.70;99.90
51839;DHT22;37886;53.174;6.368;2023-04-25T03:19:57;5.70;99.90
51839;DHT22;37886;53.174;6.368;2023-04-25T03:22:23;5.60;99.90
51839;DHT22;37886;53.174;6.368;2023-04-25T03:24:50;5.60;99.90
51839;DHT22;37886;53.174;6.368;2023-04-25T03:27:16;5.60;99.90
51839;DHT22;37886;53.174;6.368;2023-04-25T03:29:42;5.60;99.90
51839;DHT22;37886;53.174;6.368;2023-04-25T03:32:08;5.60;99.90
51839;DHT22;37886;53.174;6.368;2023-04-25T03:34:33;5.60;99.90
51839;DHT22;37886;53.174;6.368;2023-04-25T03:36:59;5.60;99.90
51839;DHT22;37886;53.174;6.368;2023-04-25T03:39:25;5.50;99.90
51839;DHT22;37886;53.174;6.368;2023-04-25T03:41:51;5.50;99.90
51839;DHT22;37886;53.174;6.368;2023-04-25T03:44:16;5.40;99.90
51839;DHT22;37886;53.174;6.368;2023-04-25T03:46:42;5.30;99.90
51839;DHT22;37886;53.174;6.368;2023-04-25T03:49:08;5.30;99.90
51839;DHT22;37886;53.174;6.368;2023-04-25T03:51:34;5.20;99.90
51839;DHT22;37886;53.174;6.368;2023-04-25T03:53:59;5.20;99.90
51839;DHT22;37886;53.174;6.368;2023-04-25T03:56:25;5.10;99.90
51839;DHT22;37886;53.174;6.368;2023-04-25T03:58:51;5.20;99.90
51839;DHT22;37886;53.174;6.368;2023-04-25T04:01:16;5.10;99.90
51839;DHT22;37886;53.174;6.368;2023-04-25T04:03:42;5.20;99.90
51839;DHT22;37886;53.174;6.368;2023-04-25T04:06:08;5.20;99.90
51839;DHT22;37886;53.174;6.368;2023-04-25T04:08:34;5.20;99.90
51839;DHT22;37886;53.174;6.368;2023-04-25T04:11:00;5.20;99.90
51839;DHT22;37886;53.174;6.368;2023-04-25T04:13:27;5.10;99.90
51839;DHT22;37886;53.174;6.368;2023-04-25T04:15:53;5.10;99.90
51839;DHT22;37886;53.174;6.368;2023-04-25T04:18:19;5.00;99.90
51839;DHT22;37886;53.174;6.368;2023-04-25T04:20:44;5.00;99.90
51839;DHT22;37886;53.174;6.368;2023-04-25T04:23:12;4.90;99.90
51839;DHT22;37886;53.174;6.368;2023-04-25T04:25:38;4.90;99.90
51839;DHT22;37886;53.174;6.368;2023-04-25T04:28:05;4.80;99.90
51839;DHT22;37886;53.174;6.368;2023-04-25T04:30:31;4.70;99.90
51839;DHT22;37886;53.174;6.368;2023-04-25T04:32:58;4.70;99.90
51839;DHT22;37886;53.174;6.368;2023-04-25T04:35:26;4.70;99.90
51839;DHT22;37886;53.174;6.368;2023-04-25T04:37:52;4.70;99.90
51839;DHT22;37886;53.174;6.368;2023-04-25T04:40:18;4.70;99.90
51839;DHT22;37886;53.174;6.368;2023-04-25T04:42:44;4.70;99.90
51839;DHT22;37886;53.174;6.368;2023-04-25T04:45:13;4.70;99.90
51839;DHT22;37886;53.174;6.368;2023-04-25T04:47:39;4.80;99.90
51839;DHT22;37886;53.174;6.368;2023-04-25T04:50:07;4.90;99.90
51839;DHT22;37886;53.174;6.368;2023-04-25T04:52:38;4.90;99.90
51839;DHT22;37886;53.174;6.368;2023-04-25T04:55:05;5.00;99.90
51839;DHT22;37886;53.174;6.368;2023-04-25T04:57:31;5.00;99.90
51839;DHT22;37886;53.174;6.368;2023-04-25T04:59:58;5.10;99.90
51839;DHT22;37886;53.174;6.368;2023-04-25T05:02:24;5.10;99.90
51839;DHT22;37886;53.174;6.368;2023-04-25T05:04:50;5.10;99.90
51839;DHT22;37886;53.174;6.368;2023-04-25T05:07:17;5.20;99.90
51839;DHT22;37886;53.174;6.368;2023-04-25T05:09:43;5.30;99.90
51839;DHT22;37886;53.174;6.368;2023-04-25T05:12:08;5.40;99.90
51839;DHT22;37886;53.174;6.368;2023-04-25T05:14:34;5.40;99.90
51839;DHT22;37886;53.174;6.368;2023-04-25T05:17:00;5.40;99.90
51839;DHT22;37886;53.174;6.368;2023-04-25T05:19:26;5.40;99.90
51839;DHT22;37886;53.174;6.368;2023-04-25T05:21:52;5.40;99.90
51839;DHT22;37886;53.174;6.368;2023-04-25T05:24:17;5.40;99.90
51839;DHT22;37886;53.174;6.368;2023-04-25T05:26:43;5.40;99.90
51839;DHT22;37886;53.174;6.368;2023-04-25T05:29:09;5.50;99.90
51839;DHT22;37886;53.174;6.368;2023-04-25T05:31:36;5.50;99.90
51839;DHT22;37886;53.174;6.368;2023-04-25T05:34:02;5.60;99.90
51839;DHT22;37886;53.174;6.368;2023-04-25T05:36:27;5.60;99.90
51839;DHT22;37886;53.174;6.368;2023-04-25T05:38:53;5.70;99.90
51839;DHT22;37886;53.174;6.368;2023-04-25T05:41:19;5.80;99.90
51839;DHT22;37886;53.174;6.368;2023-04-25T05:43:45;5.80;99.90
51839;DHT22;37886;53.174;6.368;2023-04-25T05:46:12;5.80;99.90
51839;DHT22;37886;53.174;6.368;2023-04-25T05:48:39;5.90;99.90
51839;DHT22;37886;53.174;6.368;2023-04-25T05:51:04;5.90;99.90
51839;DHT22;37886;53.174;6.368;2023-04-25T05:53:30;6.00;99.90
51839;DHT22;37886;53.174;6.368;2023-04-25T05:55:56;5.90;99.90
51839;DHT22;37886;53.174;6.368;2023-04-25T05:58:22;6.10;99.90
51839;DHT22;37886;53.174;6.368;2023-04-25T06:00:47;6.40;99.90
51839;DHT22;37886;53.174;6.368;2023-04-25T06:03:13;6.60;99.90
51839;DHT22;37886;53.174;6.368;2023-04-25T06:05:42;6.80;99.90
51839;DHT22;37886;53.174;6.368;2023-04-25T06:08:09;6.90;99.90
51839;DHT22;37886;53.174;6.368;2023-04-25T06:10:36;7.10;99.90
51839;DHT22;37886;53.174;6.368;2023-04-25T06:13:01;7.00;99.90
51839;DHT22;37886;53.174;6.368;2023-04-25T06:15:27;7.00;99.90
51839;DHT22;37886;53.174;6.368;2023-04-25T06:17:53;7.00;99.90
51839;DHT22;37886;53.174;6.368;2023-04-25T06:20:19;7.00;99.90
51839;DHT22;37886;53.174;6.368;2023-04-25T06:22:48;7.10;99.90
51839;DHT22;37886;53.174;6.368;2023-04-25T06:25:15;7.10;99.90
51839;DHT22;37886;53.174;6.368;2023-04-25T06:27:40;7.10;99.90
51839;DHT22;37886;53.174;6.368;2023-04-25T06:30:07;7.10;99.90
51839;DHT22;37886;53.174;6.368;2023-04-25T06:32:32;7.00;99.90
51839;DHT22;37886;53.174;6.368;2023-04-25T06:35:00;6.80;99.90
51839;DHT22;37886;53.174;6.368;2023-04-25T06:37:26;6.70;99.90
51839;DHT22;37886;53.174;6.368;2023-04-25T06:39:51;6.80;99.90
51839;DHT22;37886;53.174;6.368;2023-04-25T06:42:17;6.90;99.90
51839;DHT22;37886;53.174;6.368;2023-04-25T06:44:43;6.90;99.90
51839;DHT22;37886;53.174;6.368;2023-04-25T06:47:08;7.00;99.90
51839;DHT22;37886;53.174;6.368;2023-04-25T06:49:34;7.20;99.90
51839;DHT22;37886;53.174;6.368;2023-04-25T06:52:00;7.30;99.90
51839;DHT22;37886;53.174;6.368;2023-04-25T06:54:26;7.20;99.90
51839;DHT22;37886;53.174;6.368;2023-04-25T06:56:54;7.00;99.90
51839;DHT22;37886;53.174;6.368;2023-04-25T06:59:20;7.10;99.90
51839;DHT22;37886;53.174;6.368;2023-04-25T07:01:45;7.10;99.90
51839;DHT22;37886;53.174;6.368;2023-04-25T07:04:11;7.20;99.90
51839;DHT22;37886;53.174;6.368;2023-04-25T07:06:37;7.20;99.90
51839;DHT22;37886;53.174;6.368;2023-04-25T07:09:08;7.30;99.90
51839;DHT22;37886;53.174;6.368;2023-04-25T07:11:35;7.40;99.90
51839;DHT22;37886;53.174;6.368;2023-04-25T07:14:01;7.60;99.90
51839;DHT22;37886;53.174;6.368;2023-04-25T07:16:27;7.80;99.90
51839;DHT22;37886;53.174;6.368;2023-04-25T07:18:53;8.10;99.90
51839;DHT22;37886;53.174;6.368;2023-04-25T07:21:19;8.20;99.90
51839;DHT22;37886;53.174;6.368;2023-04-25T07:23:44;8.20;99.90
51839;DHT22;37886;53.174;6.368;2023-04-25T07:26:10;8.30;99.90
51839;DHT22;37886;53.174;6.368;2023-04-25T07:28:36;8.20;99.90
51839;DHT22;37886;53.174;6.368;2023-04-25T07:31:02;8.20;99.90
51839;DHT22;37886;53.174;6.368;2023-04-25T07:33:28;8.20;99.90
51839;DHT22;37886;53.174;6.368;2023-04-25T07:35:54;8.20;99.90
51839;DHT22;37886;53.174;6.368;2023-04-25T07:38:21;8.10;99.90
51839;DHT22;37886;53.174;6.368;2023-04-25T07:40:48;8.00;99.90
51839;DHT22;37886;53.174;6.368;2023-04-25T07:43:14;8.10;99.90
51839;DHT22;37886;53.174;6.368;2023-04-25T07:45:42;8.00;99.90
51839;DHT22;37886;53.174;6.368;2023-04-25T07:48:08;8.00;99.90
51839;DHT22;37886;53.174;6.368;2023-04-25T07:50:34;7.90;99.90
51839;DHT22;37886;53.174;6.368;2023-04-25T07:53:00;7.90;99.90
51839;DHT22;37886;53.174;6.368;2023-04-25T07:55:25;7.90;99.90
51839;DHT22;37886;53.174;6.368;2023-04-25T07:57:51;8.10;99.90
51839;DHT22;37886;53.174;6.368;2023-04-25T08:00:17;8.20;99.90
51839;DHT22;37886;53.174;6.368;2023-04-25T08:02:43;8.50;99.90
51839;DHT22;37886;53.174;6.368;2023-04-25T08:05:09;8.60;99.90
51839;DHT22;37886;53.174;6.368;2023-04-25T08:07:37;8.80;99.90
51839;DHT22;37886;53.174;6.368;2023-04-25T08:10:05;9.10;99.90
51839;DHT22;37886;53.174;6.368;2023-04-25T08:12:31;8.60;99.90
51839;DHT22;37886;53.174;6.368;2023-04-25T08:14:57;7.90;99.90
51839;DHT22;37886;53.174;6.368;2023-04-25T08:17:23;7.20;99.90
51839;DHT22;37886;53.174;6.368;2023-04-25T08:19:49;6.80;99.90
51839;DHT22;37886;53.174;6.368;2023-04-25T08:22:14;6.60;99.90
51839;DHT22;37886;53.174;6.368;2023-04-25T08:24:41;6.50;99.90
51839;DHT22;37886;53.174;6.368;2023-04-25T08:27:07;6.70;99.90
51839;DHT22;37886;53.174;6.368;2023-04-25T08:29:33;7.20;99.90
51839;DHT22;37886;53.174;6.368;2023-04-25T08:31:59;7.60;99.90
51839;DHT22;37886;53.174;6.368;2023-04-25T08:34:25;7.40;99.90
51839;DHT22;37886;53.174;6.368;2023-04-25T08:36:51;6.90;99.90
51839;DHT22;37886;53.174;6.368;2023-04-25T08:39:17;6.20;99.90
51839;DHT22;37886;53.174;6.368;2023-04-25T08:41:43;6.00;99.90
51839;DHT22;37886;53.174;6.368;2023-04-25T08:44:10;6.00;99.90
51839;DHT22;37886;53.174;6.368;2023-04-25T08:46:38;6.20;99.90
51839;DHT22;37886;53.174;6.368;2023-04-25T08:49:07;6.60;99.90
51839;DHT22;37886;53.174;6.368;2023-04-25T08:51:38;6.80;99.90
51839;DHT22;37886;53.174;6.368;2023-04-25T08:54:11;7.10;99.90
51839;DHT22;37886;53.174;6.368;2023-04-25T08:56:47;7.20;99.90
51839;DHT22;37886;53.174;6.368;2023-04-25T08:59:13;7.20;99.90
51839;DHT22;37886;53.174;6.368;2023-04-25T09:01:39;7.20;99.90
51839;DHT22;37886;53.174;6.368;2023-04-25T09:04:05;7.20;99.90
51839;DHT22;37886;53.174;6.368;2023-04-25T09:06:31;7.50;99.90
51839;DHT22;37886;53.174;6.368;2023-04-25T09:09:04;7.80;99.90
51839;DHT22;37886;53.174;6.368;2023-04-25T09:11:34;7.80;99.90
51839;DHT22;37886;53.174;6.368;2023-04-25T09:14:30;8.20;99.90
51839;DHT22;37886;53.174;6.368;2023-04-25T09:19:27;9.00;99.90
51839;DHT22;37886;53.174;6.368;2023-04-25T09:22:04;9.30;99.90
51839;DHT22;37886;53.174;6.368;2023-04-25T09:24:36;9.20;99.90
51839;DHT22;37886;53.174;6.368;2023-04-25T09:27:13;8.90;99.90
51839;DHT22;37886;53.174;6.368;2023-04-25T09:29:42;7.90;99.90
51839;DHT22;37886;53.174;6.368;2023-04-25T09:32:22;7.20;99.90
51839;DHT22;37886;53.174;6.368;2023-04-25T09:34:53;7.20;99.90
51839;DHT22;37886;53.174;6.368;2023-04-25T09:37:20;7.30;99.90
51839;DHT22;37886;53.174;6.368;2023-04-25T09:39:48;7.40;99.90
51839;DHT22;37886;53.174;6.368;2023-04-25T09:42:14;7.80;99.90
51839;DHT22;37886;53.174;6.368;2023-04-25T09:44:46;8.30;99.90
51839;DHT22;37886;53.174;6.368;2023-04-25T09:47:15;8.60;99.90
51839;DHT22;37886;53.174;6.368;2023-04-25T09:49:44;8.50;99.90
51839;DHT22;37886;53.174;6.368;2023-04-25T09:52:17;8.70;99.90
51839;DHT22;37886;53.174;6.368;2023-04-25T09:54:44;8.70;99.90
51839;DHT22;37886;53.174;6.368;2023-04-25T09:59:39;8.80;99.90
51839;DHT22;37886;53.174;6.368;2023-04-25T10:02:08;9.10;99.90
51839;DHT22;37886;53.174;6.368;2023-04-25T10:04:35;9.40;99.90
51839;DHT22;37886;53.174;6.368;2023-04-25T10:07:07;9.70;99.90
51839;DHT22;37886;53.174;6.368;2023-04-25T10:09:33;9.70;99.90
51839;DHT22;37886;53.174;6.368;2023-04-25T10:12:00;9.20;99.90
51839;DHT22;37886;53.174;6.368;2023-04-25T10:14:27;9.10;99.90
51839;DHT22;37886;53.174;6.368;2023-04-25T10:16:54;9.30;99.90
51839;DHT22;37886;53.174;6.368;2023-04-25T10:19:21;9.70;99.90
51839;DHT22;37886;53.174;6.368;2023-04-25T10:22:02;9.40;99.90
51839;DHT22;37886;53.174;6.368;2023-04-25T10:24:29;9.40;99.90
51839;DHT22;37886;53.174;6.368;2023-04-25T10:26:56;9.20;99.90
51839;DHT22;37886;53.174;6.368;2023-04-25T10:29:26;9.50;99.90
51839;DHT22;37886;53.174;6.368;2023-04-25T10:31:52;9.80;99.90
51839;DHT22;37886;53.174;6.368;2023-04-25T10:34:18;9.60;99.90
51839;DHT22;37886;53.174;6.368;2023-04-25T10:36:50;9.80;99.90
51839;DHT22;37886;53.174;6.368;2023-04-25T10:39:24;10.10;99.90
51839;DHT22;37886;53.174;6.368;2023-04-25T10:42:02;10.30;99.90
51839;DHT22;37886;53.174;6.368;2023-04-25T10:44:31;10.50;99.90
51839;DHT22;37886;53.174;6.368;2023-04-25T10:46:59;9.90;99.90
51839;DHT22;37886;53.174;6.368;2023-04-25T10:49:43;9.40;99.90
51839;DHT22;37886;53.174;6.368;2023-04-25T10:52:16;9.00;99.90
51839;DHT22;37886;53.174;6.368;2023-04-25T10:54:46;8.60;99.90
51839;DHT22;37886;53.174;6.368;2023-04-25T10:57:29;8.70;99.90
51839;DHT22;37886;53.174;6.368;2023-04-25T11:02:31;9.80;99.90
51839;DHT22;37886;53.174;6.368;2023-04-25T11:04:57;9.90;99.90
51839;DHT22;37886;53.174;6.368;2023-04-25T11:07:38;10.20;99.90
51839;DHT22;37886;53.174;6.368;2023-04-25T11:10:05;10.30;99.90
51839;DHT22;37886;53.174;6.368;2023-04-25T11:12:31;10.50;99.90
51839;DHT22;37886;53.174;6.368;2023-04-25T11:15:05;10.70;99.90
51839;DHT22;37886;53.174;6.368;2023-04-25T11:17:31;10.80;99.90
51839;DHT22;37886;53.174;6.368;2023-04-25T11:19:57;11.10;99.90
51839;DHT22;37886;53.174;6.368;2023-04-25T11:22:23;10.90;99.90
51839;DHT22;37886;53.174;6.368;2023-04-25T11:24:49;10.70;99.90
51839;DHT22;37886;53.174;6.368;2023-04-25T11:27:16;10.50;99.90
51839;DHT22;37886;53.174;6.368;2023-04-25T11:29:41;10.30;99.90
51839;DHT22;37886;53.174;6.368;2023-04-25T11:32:07;10.60;99.90
51839;DHT22;37886;53.174;6.368;2023-04-25T11:34:33;10.50;99.90
51839;DHT22;37886;53.174;6.368;2023-04-25T11:37:00;10.10;99.90
51839;DHT22;37886;53.174;6.368;2023-04-25T11:39:27;10.00;99.90
51839;DHT22;37886;53.174;6.368;2023-04-25T11:41:54;10.00;99.90
51839;DHT22;37886;53.174;6.368;2023-04-25T11:44:20;10.10;99.90
51839;DHT22;37886;53.174;6.368;2023-04-25T11:46:46;10.50;99.90
51839;DHT22;37886;53.174;6.368;2023-04-25T11:49:15;10.90;99.90
51839;DHT22;37886;53.174;6.368;2023-04-25T11:51:45;11.30;99.90
51839;DHT22;37886;53.174;6.368;2023-04-25T11:54:12;11.70;99.90
51839;DHT22;37886;53.174;6.368;2023-04-25T11:56:44;12.10;99.90
51839;DHT22;37886;53.174;6.368;2023-04-25T11:59:11;11.80;99.90
51839;DHT22;37886;53.174;6.368;2023-04-25T12:01:38;11.60;99.90
51839;DHT22;37886;53.174;6.368;2023-04-25T12:04:15;11.40;99.90
51839;DHT22;37886;53.174;6.368;2023-04-25T12:06:45;11.70;99.90
51839;DHT22;37886;53.174;6.368;2023-04-25T12:09:15;11.80;99.90
51839;DHT22;37886;53.174;6.368;2023-04-25T12:11:48;11.80;99.90
51839;DHT22;37886;53.174;6.368;2023-04-25T12:14:26;11.80;99.90
51839;DHT22;37886;53.174;6.368;2023-04-25T12:16:55;11.40;99.90
51839;DHT22;37886;53.174;6.368;2023-04-25T12:19:21;10.70;99.90
51839;DHT22;37886;53.174;6.368;2023-04-25T12:21:48;10.50;99.90
51839;DHT22;37886;53.174;6.368;2023-04-25T12:24:21;10.10;99.90
51839;DHT22;37886;53.174;6.368;2023-04-25T12:26:52;10.00;99.90
51839;DHT22;37886;53.174;6.368;2023-04-25T12:29:23;9.80;99.90
51839;DHT22;37886;53.174;6.368;2023-04-25T12:31:50;10.00;99.90
51839;DHT22;37886;53.174;6.368;2023-04-25T12:34:17;11.10;99.90
51839;DHT22;37886;53.174;6.368;2023-04-25T12:36:43;11.30;99.90
51839;DHT22;37886;53.174;6.368;2023-04-25T12:39:08;10.80;99.90
51839;DHT22;37886;53.174;6.368;2023-04-25T12:41:40;10.20;99.90
51839;DHT22;37886;53.174;6.368;2023-04-25T12:44:06;9.80;99.90
51839;DHT22;37886;53.174;6.368;2023-04-25T12:46:32;9.70;99.90
51839;DHT22;37886;53.174;6.368;2023-04-25T12:48:58;10.00;99.90
51839;DHT22;37886;53.174;6.368;2023-04-25T12:51:23;11.00;99.90
51839;DHT22;37886;53.174;6.368;2023-04-25T12:53:51;11.80;99.90
51839;DHT22;37886;53.174;6.368;2023-04-25T12:56:17;11.70;99.90
51839;DHT22;37886;53.174;6.368;2023-04-25T12:58:43;11.10;99.90
51839;DHT22;37886;53.174;6.368;2023-04-25T13:01:09;10.60;99.90
51839;DHT22;37886;53.174;6.368;2023-04-25T13:03:35;10.10;99.90
51839;DHT22;37886;53.174;6.368;2023-04-25T13:06:01;10.30;99.90
51839;DHT22;37886;53.174;6.368;2023-04-25T13:08:26;10.60;99.90
51839;DHT22;37886;53.174;6.368;2023-04-25T13:10:52;11.50;99.90
51839;DHT22;37886;53.174;6.368;2023-04-25T13:13:18;12.10;99.90
51839;DHT22;37886;53.174;6.368;2023-04-25T13:15:44;12.20;99.90
51839;DHT22;37886;53.174;6.368;2023-04-25T13:18:10;11.20;99.90
51839;DHT22;37886;53.174;6.368;2023-04-25T13:20:35;11.70;99.90
51839;DHT22;37886;53.174;6.368;2023-04-25T13:23:01;12.00;99.90
51839;DHT22;37886;53.174;6.368;2023-04-25T13:25:27;12.40;99.90
51839;DHT22;37886;53.174;6.368;2023-04-25T13:27:52;12.30;99.90
51839;DHT22;37886;53.174;6.368;2023-04-25T13:30:18;11.10;99.90
51839;DHT22;37886;53.174;6.368;2023-04-25T13:32:44;10.50;99.90
51839;DHT22;37886;53.174;6.368;2023-04-25T13:35:12;10.30;99.90
51839;DHT22;37886;53.174;6.368;2023-04-25T13:37:38;10.20;99.90
51839;DHT22;37886;53.174;6.368;2023-04-25T13:40:07;9.80;99.90
51839;DHT22;37886;53.174;6.368;2023-04-25T13:42:38;9.80;99.90
51839;DHT22;37886;53.174;6.368;2023-04-25T13:45:04;9.80;99.90
51839;DHT22;37886;53.174;6.368;2023-04-25T13:47:30;9.60;99.90
51839;DHT22;37886;53.174;6.368;2023-04-25T13:49:56;10.30;99.90
51839;DHT22;37886;53.174;6.368;2023-04-25T13:52:22;10.80;99.90
51839;DHT22;37886;53.174;6.368;2023-04-25T13:54:50;11.00;99.90
51839;DHT22;37886;53.174;6.368;2023-04-25T13:57:16;11.30;99.90
51839;DHT22;37886;53.174;6.368;2023-04-25T13:59:42;12.10;99.90
51839;DHT22;37886;53.174;6.368;2023-04-25T14:02:08;11.60;99.90
51839;DHT22;37886;53.174;6.368;2023-04-25T14:04:34;10.80;99.90
51839;DHT22;37886;53.174;6.368;2023-04-25T14:07:00;11.20;99.90
51839;DHT22;37886;53.174;6.368;2023-04-25T14:09:27;11.10;99.90
51839;DHT22;37886;53.174;6.368;2023-04-25T14:11:53;10.90;99.90
51839;DHT22;37886;53.174;6.368;2023-04-25T14:14:19;10.60;99.90
51839;DHT22;37886;53.174;6.368;2023-04-25T14:16:46;10.40;99.90
51839;DHT22;37886;53.174;6.368;2023-04-25T14:19:16;10.30;99.90
51839;DHT22;37886;53.174;6.368;2023-04-25T14:21:42;10.30;99.90
51839;DHT22;37886;53.174;6.368;2023-04-25T14:24:11;10.20;99.90
51839;DHT22;37886;53.174;6.368;2023-04-25T14:26:37;10.80;99.90
51839;DHT22;37886;53.174;6.368;2023-04-25T14:29:04;10.40;99.90
51839;DHT22;37886;53.174;6.368;2023-04-25T14:31:30;10.00;99.90
51839;DHT22;37886;53.174;6.368;2023-04-25T14:33:56;9.80;99.90
51839;DHT22;37886;53.174;6.368;2023-04-25T14:36:22;10.10;99.90
51839;DHT22;37886;53.174;6.368;2023-04-25T14:38:47;10.30;99.90
51839;DHT22;37886;53.174;6.368;2023-04-25T14:41:13;10.50;99.90
51839;DHT22;37886;53.174;6.368;2023-04-25T14:43:39;10.50;99.90
51839;DHT22;37886;53.174;6.368;2023-04-25T14:46:08;10.50;99.90
51839;DHT22;37886;53.174;6.368;2023-04-25T14:48:34;10.60;99.90
51839;DHT22;37886;53.174;6.368;2023-04-25T14:51:00;10.30;99.90
51839;DHT22;37886;53.174;6.368;2023-04-25T14:53:27;10.10;99.90
51839;DHT22;37886;53.174;6.368;2023-04-25T14:55:52;9.90;99.90
51839;DHT22;37886;53.174;6.368;2023-04-25T14:58:19;9.70;99.90
51839;DHT22;37886;53.174;6.368;2023-04-25T15:00:45;9.70;99.90
51839;DHT22;37886;53.174;6.368;2023-04-25T15:03:11;10.80;99.90
51839;DHT22;37886;53.174;6.368;2023-04-25T15:05:39;12.30;99.90
51839;DHT22;37886;53.174;6.368;2023-04-25T15:08:05;12.70;99.90
51839;DHT22;37886;53.174;6.368;2023-04-25T15:10:31;12.10;99.90
51839;DHT22;37886;53.174;6.368;2023-04-25T15:12:57;11.70;99.90
51839;DHT22;37886;53.174;6.368;2023-04-25T15:15:22;12.60;99.90
51839;DHT22;37886;53.174;6.368;2023-04-25T15:17:49;13.10;99.90
51839;DHT22;37886;53.174;6.368;2023-04-25T15:20:15;13.30;99.90
51839;DHT22;37886;53.174;6.368;2023-04-25T15:22:42;12.50;99.90
51839;DHT22;37886;53.174;6.368;2023-04-25T15:25:09;13.50;99.90
51839;DHT22;37886;53.174;6.368;2023-04-25T15:27:36;13.30;99.90
51839;DHT22;37886;53.174;6.368;2023-04-25T15:30:11;12.20;99.90
51839;DHT22;37886;53.174;6.368;2023-04-25T15:32:39;11.20;99.90
51839;DHT22;37886;53.174;6.368;2023-04-25T15:35:06;10.60;99.90
51839;DHT22;37886;53.174;6.368;2023-04-25T15:37:32;10.20;99.90
51839;DHT22;37886;53.174;6.368;2023-04-25T15:40:07;10.10;99.90
51839;DHT22;37886;53.174;6.368;2023-04-25T15:45:04;12.20;99.90
51839;DHT22;37886;53.174;6.368;2023-04-25T15:47:29;12.00;99.90
51839;DHT22;37886;53.174;6.368;2023-04-25T15:49:55;11.90;99.90
51839;DHT22;37886;53.174;6.368;2023-04-25T15:52:21;12.20;99.90